sensor_id;sensor_type;location;lat;lon;timestamp;P1;durP1;ratioP1;P2;durP2;ratioP2
10727;SDS011;5415;59.322;18.246;2022-07-29T00:00:54;2.40;;;0.80;;
10727;SDS011;5415;59.322;18.246;2022-07-29T00:03:21;0.73;;;0.73;;
10727;SDS011;5415;59.322;18.246;2022-07-29T00:05:50;0.80;;;0.77;;
10727;SDS011;5415;59.322;18.246;2022-07-29T00:08:19;0.80;;;0.80;;
10727;SDS011;5415;59.322;18.246;2022-07-29T00:10:46;0.77;;;0.77;;
10727;SDS011;5415;59.322;18.246;2022-07-29T00:13:14;1.17;;;0.70;;
10727;SDS011;5415;59.322;18.246;2022-07-29T00:15:42;1.07;;;0.80;;
10727;SDS011;5415;59.322;18.246;2022-07-29T00:18:09;1.90;;;0.93;;
10727;SDS011;5415;59.322;18.246;2022-07-29T00:20:37;0.60;;;0.60;;
10727;SDS011;5415;59.322;18.246;2022-07-29T00:23:06;0.80;;;0.80;;
10727;SDS011;5415;59.322;18.246;2022-07-29T00:25:34;0.87;;;0.80;;
10727;SDS011;5415;59.322;18.246;2022-07-29T00:28:01;1.03;;;0.70;;
10727;SDS011;5415;59.322;18.246;2022-07-29T00:30:28;0.83;;;0.70;;
10727;SDS011;5415;59.322;18.246;2022-07-29T00:32:56;0.80;;;0.80;;
10727;SDS011;5415;59.322;18.246;2022-07-29T00:35:23;0.60;;;0.60;;
10727;SDS011;5415;59.322;18.246;2022-07-29T00:38:10;0.70;;;0.60;;
10727;SDS011;5415;59.322;18.246;2022-07-29T00:40:38;0.70;;;0.70;;
10727;SDS011;5415;59.322;18.246;2022-07-29T00:43:05;0.60;;;0.60;;
10727;SDS011;5415;59.322;18.246;2022-07-29T00:45:33;1.50;;;0.70;;
10727;SDS011;5415;59.322;18.246;2022-07-29T00:48:00;0.63;;;0.63;;
10727;SDS011;5415;59.322;18.246;2022-07-29T00:50:30;2.23;;;0.80;;
10727;SDS011;5415;59.322;18.246;2022-07-29T00:52:57;0.60;;;0.60;;
10727;SDS011;5415;59.322;18.246;2022-07-29T00:55:29;0.70;;;0.67;;
10727;SDS011;5415;59.322;18.246;2022-07-29T00:57:56;1.00;;;0.90;;
10727;SDS011;5415;59.322;18.246;2022-07-29T01:00:26;0.63;;;0.63;;
10727;SDS011;5415;59.322;18.246;2022-07-29T01:02:54;1.10;;;0.90;;
10727;SDS011;5415;59.322;18.246;2022-07-29T01:05:23;0.80;;;0.80;;
10727;SDS011;5415;59.322;18.246;2022-07-29T01:07:52;0.80;;;0.70;;
10727;SDS011;5415;59.322;18.246;2022-07-29T01:10:21;0.87;;;0.70;;
10727;SDS011;5415;59.322;18.246;2022-07-29T01:12:52;1.33;;;0.80;;
10727;SDS011;5415;59.322;18.246;2022-07-29T01:15:20;0.70;;;0.70;;
10727;SDS011;5415;59.322;18.246;2022-07-29T01:17:50;1.23;;;0.80;;
10727;SDS011;5415;59.322;18.246;2022-07-29T01:20:23;0.80;;;0.80;;
10727;SDS011;5415;59.322;18.246;2022-07-29T01:23:08;0.70;;;0.70;;
10727;SDS011;5415;59.322;18.246;2022-07-29T01:28:43;0.70;;;0.67;;
10727;SDS011;5415;59.322;18.246;2022-07-29T01:31:15;0.77;;;0.77;;
10727;SDS011;5415;59.322;18.246;2022-07-29T01:33:43;0.90;;;0.70;;
10727;SDS011;5415;59.322;18.246;2022-07-29T01:36:16;0.77;;;0.70;;
10727;SDS011;5415;59.322;18.246;2022-07-29T01:38:45;0.70;;;0.70;;
10727;SDS011;5415;59.322;18.246;2022-07-29T01:41:14;1.23;;;0.83;;
10727;SDS011;5415;59.322;18.246;2022-07-29T01:43:47;0.83;;;0.83;;
10727;SDS011;5415;59.322;18.246;2022-07-29T01:46:17;0.97;;;0.80;;
10727;SDS011;5415;59.322;18.246;2022-07-29T01:48:48;1.30;;;0.73;;
10727;SDS011;5415;59.322;18.246;2022-07-29T01:51:17;1.20;;;0.90;;
10727;SDS011;5415;59.322;18.246;2022-07-29T01:53:46;0.77;;;0.70;;
10727;SDS011;5415;59.322;18.246;2022-07-29T01:56:14;0.80;;;0.80;;
10727;SDS011;5415;59.322;18.246;2022-07-29T01:58:45;1.07;;;0.83;;
10727;SDS011;5415;59.322;18.246;2022-07-29T02:01:15;0.50;;;0.50;;
10727;SDS011;5415;59.322;18.246;2022-07-29T02:03:44;1.07;;;0.80;;
10727;SDS011;5415;59.322;18.246;2022-07-29T02:06:14;0.70;;;0.70;;
10727;SDS011;5415;59.322;18.246;2022-07-29T02:08:43;1.50;;;0.70;;
10727;SDS011;5415;59.322;18.246;2022-07-29T02:11:11;0.80;;;0.77;;
10727;SDS011;5415;59.322;18.246;2022-07-29T02:13:38;0.70;;;0.70;;
10727;SDS011;5415;59.322;18.246;2022-07-29T02:16:10;0.73;;;0.73;;
10727;SDS011;5415;59.322;18.246;2022-07-29T02:18:39;0.87;;;0.70;;
10727;SDS011;5415;59.322;18.246;2022-07-29T02:21:08;1.23;;;0.90;;
10727;SDS011;5415;59.322;18.246;2022-07-29T02:23:36;0.80;;;0.70;;
10727;SDS011;5415;59.322;18.246;2022-07-29T02:26:04;2.07;;;0.80;;
10727;SDS011;5415;59.322;18.246;2022-07-29T02:28:33;1.37;;;0.63;;
10727;SDS011;5415;59.322;18.246;2022-07-29T02:31:01;0.53;;;0.53;;
10727;SDS011;5415;59.322;18.246;2022-07-29T02:33:31;1.60;;;0.80;;
10727;SDS011;5415;59.322;18.246;2022-07-29T02:35:59;0.70;;;0.70;;
10727;SDS011;5415;59.322;18.246;2022-07-29T02:38:27;1.20;;;0.80;;
10727;SDS011;5415;59.322;18.246;2022-07-29T02:41:13;1.53;;;0.70;;
10727;SDS011;5415;59.322;18.246;2022-07-29T02:43:44;2.33;;;0.67;;
10727;SDS011;5415;59.322;18.246;2022-07-29T02:46:13;0.67;;;0.67;;
10727;SDS011;5415;59.322;18.246;2022-07-29T02:48:47;0.87;;;0.63;;
10727;SDS011;5415;59.322;18.246;2022-07-29T02:51:17;0.93;;;0.90;;
10727;SDS011;5415;59.322;18.246;2022-07-29T02:53:47;0.87;;;0.87;;
10727;SDS011;5415;59.322;18.246;2022-07-29T02:56:16;1.37;;;0.80;;
10727;SDS011;5415;59.322;18.246;2022-07-29T02:58:45;0.70;;;0.63;;
10727;SDS011;5415;59.322;18.246;2022-07-29T03:01:14;1.90;;;0.90;;
10727;SDS011;5415;59.322;18.246;2022-07-29T03:03:45;0.93;;;0.90;;
10727;SDS011;5415;59.322;18.246;2022-07-29T03:06:14;1.90;;;0.90;;
10727;SDS011;5415;59.322;18.246;2022-07-29T03:08:42;1.43;;;0.83;;
10727;SDS011;5415;59.322;18.246;2022-07-29T03:11:10;0.70;;;0.70;;
10727;SDS011;5415;59.322;18.246;2022-07-29T03:13:38;0.70;;;0.70;;
10727;SDS011;5415;59.322;18.246;2022-07-29T03:16:06;0.60;;;0.60;;
10727;SDS011;5415;59.322;18.246;2022-07-29T03:18:36;0.70;;;0.70;;
10727;SDS011;5415;59.322;18.246;2022-07-29T03:21:05;1.60;;;0.80;;
10727;SDS011;5415;59.322;18.246;2022-07-29T03:23:34;1.00;;;0.83;;
10727;SDS011;5415;59.322;18.246;2022-07-29T03:26:01;1.23;;;1.10;;
10727;SDS011;5415;59.322;18.246;2022-07-29T03:28:29;0.80;;;0.80;;
10727;SDS011;5415;59.322;18.246;2022-07-29T03:30:57;0.90;;;0.67;;
10727;SDS011;5415;59.322;18.246;2022-07-29T03:33:25;0.77;;;0.77;;
10727;SDS011;5415;59.322;18.246;2022-07-29T03:35:54;0.90;;;0.90;;
10727;SDS011;5415;59.322;18.246;2022-07-29T03:38:24;0.70;;;0.70;;
10727;SDS011;5415;59.322;18.246;2022-07-29T03:40:52;1.80;;;0.80;;
10727;SDS011;5415;59.322;18.246;2022-07-29T03:43:21;0.80;;;0.80;;
10727;SDS011;5415;59.322;18.246;2022-07-29T03:45:50;0.90;;;0.90;;
10727;SDS011;5415;59.322;18.246;2022-07-29T03:48:21;0.80;;;0.80;;
10727;SDS011;5415;59.322;18.246;2022-07-29T03:50:49;0.80;;;0.80;;
10727;SDS011;5415;59.322;18.246;2022-07-29T03:53:17;1.40;;;1.00;;
10727;SDS011;5415;59.322;18.246;2022-07-29T03:55:50;0.80;;;0.80;;
10727;SDS011;5415;59.322;18.246;2022-07-29T03:58:19;1.03;;;1.00;;
10727;SDS011;5415;59.322;18.246;2022-07-29T04:00:47;1.00;;;1.00;;
10727;SDS011;5415;59.322;18.246;2022-07-29T04:03:16;1.03;;;0.97;;
10727;SDS011;5415;59.322;18.246;2022-07-29T04:05:44;0.93;;;0.93;;
10727;SDS011;5415;59.322;18.246;2022-07-29T04:08:11;1.00;;;1.00;;
10727;SDS011;5415;59.322;18.246;2022-07-29T04:10:39;1.10;;;1.00;;
10727;SDS011;5415;59.322;18.246;2022-07-29T04:13:08;0.90;;;0.90;;
10727;SDS011;5415;59.322;18.246;2022-07-29T04:15:35;1.20;;;1.10;;
10727;SDS011;5415;59.322;18.246;2022-07-29T04:18:03;0.80;;;0.80;;
10727;SDS011;5415;59.322;18.246;2022-07-29T04:20:31;1.90;;;0.80;;
10727;SDS011;5415;59.322;18.246;2022-07-29T04:22:59;0.97;;;0.97;;
10727;SDS011;5415;59.322;18.246;2022-07-29T04:25:27;1.20;;;1.10;;
10727;SDS011;5415;59.322;18.246;2022-07-29T04:27:54;0.90;;;0.90;;
10727;SDS011;5415;59.322;18.246;2022-07-29T04:30:31;1.17;;;1.07;;
10727;SDS011;5415;59.322;18.246;2022-07-29T04:32:59;1.20;;;1.07;;
10727;SDS011;5415;59.322;18.246;2022-07-29T04:35:27;1.17;;;1.07;;
10727;SDS011;5415;59.322;18.246;2022-07-29T04:37:54;1.17;;;1.10;;
10727;SDS011;5415;59.322;18.246;2022-07-29T04:40:21;1.33;;;1.10;;
10727;SDS011;5415;59.322;18.246;2022-07-29T04:42:49;1.00;;;1.00;;
10727;SDS011;5415;59.322;18.246;2022-07-29T04:45:16;1.23;;;1.13;;
10727;SDS011;5415;59.322;18.246;2022-07-29T04:47:45;2.60;;;1.17;;
10727;SDS011;5415;59.322;18.246;2022-07-29T04:50:14;1.57;;;1.00;;
10727;SDS011;5415;59.322;18.246;2022-07-29T04:52:42;2.20;;;0.93;;
10727;SDS011;5415;59.322;18.246;2022-07-29T04:55:09;1.10;;;1.00;;
10727;SDS011;5415;59.322;18.246;2022-07-29T04:57:37;2.67;;;1.10;;
10727;SDS011;5415;59.322;18.246;2022-07-29T05:00:06;1.33;;;1.00;;
10727;SDS011;5415;59.322;18.246;2022-07-29T05:02:34;3.27;;;0.97;;
10727;SDS011;5415;59.322;18.246;2022-07-29T05:05:05;0.80;;;0.80;;
10727;SDS011;5415;59.322;18.246;2022-07-29T05:07:33;0.87;;;0.87;;
10727;SDS011;5415;59.322;18.246;2022-07-29T05:10:01;0.80;;;0.80;;
10727;SDS011;5415;59.322;18.246;2022-07-29T05:12:29;1.80;;;0.83;;
10727;SDS011;5415;59.322;18.246;2022-07-29T05:14:56;1.50;;;0.90;;
10727;SDS011;5415;59.322;18.246;2022-07-29T05:17:24;0.97;;;0.93;;
10727;SDS011;5415;59.322;18.246;2022-07-29T05:19:51;0.93;;;0.83;;
10727;SDS011;5415;59.322;18.246;2022-07-29T05:22:20;0.87;;;0.73;;
10727;SDS011;5415;59.322;18.246;2022-07-29T05:24:48;1.23;;;0.90;;
10727;SDS011;5415;59.322;18.246;2022-07-29T05:27:15;4.90;;;0.70;;
10727;SDS011;5415;59.322;18.246;2022-07-29T05:29:43;1.80;;;0.63;;
10727;SDS011;5415;59.322;18.246;2022-07-29T05:32:12;1.67;;;0.80;;
10727;SDS011;5415;59.322;18.246;2022-07-29T05:34:40;0.67;;;0.60;;
10727;SDS011;5415;59.322;18.246;2022-07-29T05:37:08;0.70;;;0.70;;
10727;SDS011;5415;59.322;18.246;2022-07-29T05:39:37;0.60;;;0.60;;
10727;SDS011;5415;59.322;18.246;2022-07-29T05:42:07;0.93;;;0.67;;
10727;SDS011;5415;59.322;18.246;2022-07-29T05:44:36;0.70;;;0.60;;
10727;SDS011;5415;59.322;18.246;2022-07-29T05:47:04;0.67;;;0.67;;
10727;SDS011;5415;59.322;18.246;2022-07-29T05:49:32;0.93;;;0.50;;
10727;SDS011;5415;59.322;18.246;2022-07-29T05:51:59;0.97;;;0.73;;
10727;SDS011;5415;59.322;18.246;2022-07-29T05:54:27;2.47;;;0.70;;
10727;SDS011;5415;59.322;18.246;2022-07-29T05:56:56;1.30;;;0.90;;
10727;SDS011;5415;59.322;18.246;2022-07-29T05:59:23;1.63;;;0.80;;
10727;SDS011;5415;59.322;18.246;2022-07-29T06:01:51;0.80;;;0.70;;
10727;SDS011;5415;59.322;18.246;2022-07-29T06:04:19;1.10;;;0.90;;
10727;SDS011;5415;59.322;18.246;2022-07-29T06:06:48;1.60;;;0.90;;
10727;SDS011;5415;59.322;18.246;2022-07-29T06:09:16;1.40;;;0.80;;
10727;SDS011;5415;59.322;18.246;2022-07-29T06:11:43;1.87;;;1.10;;
10727;SDS011;5415;59.322;18.246;2022-07-29T06:14:13;0.80;;;0.80;;
10727;SDS011;5415;59.322;18.246;2022-07-29T06:16:42;0.70;;;0.70;;
10727;SDS011;5415;59.322;18.246;2022-07-29T06:19:11;1.37;;;1.00;;
10727;SDS011;5415;59.322;18.246;2022-07-29T06:21:41;1.30;;;1.10;;
10727;SDS011;5415;59.322;18.246;2022-07-29T06:24:08;2.23;;;0.70;;
10727;SDS011;5415;59.322;18.246;2022-07-29T06:26:37;0.77;;;0.77;;
10727;SDS011;5415;59.322;18.246;2022-07-29T06:29:05;0.73;;;0.60;;
10727;SDS011;5415;59.322;18.246;2022-07-29T06:31:34;1.70;;;0.70;;
10727;SDS011;5415;59.322;18.246;2022-07-29T06:34:03;0.50;;;0.50;;
10727;SDS011;5415;59.322;18.246;2022-07-29T06:36:33;0.50;;;0.50;;
10727;SDS011;5415;59.322;18.246;2022-07-29T06:39:01;0.93;;;0.60;;
10727;SDS011;5415;59.322;18.246;2022-07-29T06:41:30;0.70;;;0.40;;
10727;SDS011;5415;59.322;18.246;2022-07-29T06:43:58;0.50;;;0.50;;
10727;SDS011;5415;59.322;18.246;2022-07-29T06:46:27;0.50;;;0.50;;
10727;SDS011;5415;59.322;18.246;2022-07-29T06:48:57;0.63;;;0.40;;
10727;SDS011;5415;59.322;18.246;2022-07-29T06:51:27;0.50;;;0.50;;
10727;SDS011;5415;59.322;18.246;2022-07-29T06:53:55;0.43;;;0.43;;
10727;SDS011;5415;59.322;18.246;2022-07-29T06:56:22;0.40;;;0.40;;
10727;SDS011;5415;59.322;18.246;2022-07-29T06:58:50;0.40;;;0.40;;
10727;SDS011;5415;59.322;18.246;2022-07-29T07:01:18;2.10;;;0.30;;
10727;SDS011;5415;59.322;18.246;2022-07-29T07:03:45;0.40;;;0.40;;
10727;SDS011;5415;59.322;18.246;2022-07-29T07:06:14;0.40;;;0.40;;
10727;SDS011;5415;59.322;18.246;2022-07-29T07:08:42;0.30;;;0.30;;
10727;SDS011;5415;59.322;18.246;2022-07-29T07:11:09;0.27;;;0.27;;
10727;SDS011;5415;59.322;18.246;2022-07-29T07:13:36;0.50;;;0.20;;
10727;SDS011;5415;59.322;18.246;2022-07-29T07:16:04;0.40;;;0.40;;
10727;SDS011;5415;59.322;18.246;2022-07-29T07:18:31;0.57;;;0.50;;
10727;SDS011;5415;59.322;18.246;2022-07-29T07:20:59;0.30;;;0.30;;
10727;SDS011;5415;59.322;18.246;2022-07-29T07:23:28;0.70;;;0.40;;
10727;SDS011;5415;59.322;18.246;2022-07-29T07:25:55;1.77;;;0.40;;
10727;SDS011;5415;59.322;18.246;2022-07-29T07:28:23;1.90;;;0.30;;
10727;SDS011;5415;59.322;18.246;2022-07-29T07:30:51;0.30;;;0.30;;
10727;SDS011;5415;59.322;18.246;2022-07-29T07:33:19;0.43;;;0.40;;
10727;SDS011;5415;59.322;18.246;2022-07-29T07:35:47;0.50;;;0.50;;
10727;SDS011;5415;59.322;18.246;2022-07-29T07:38:15;1.67;;;0.40;;
10727;SDS011;5415;59.322;18.246;2022-07-29T07:40:44;0.50;;;0.37;;
10727;SDS011;5415;59.322;18.246;2022-07-29T07:43:12;0.33;;;0.33;;
10727;SDS011;5415;59.322;18.246;2022-07-29T07:45:39;0.40;;;0.40;;
10727;SDS011;5415;59.322;18.246;2022-07-29T07:48:07;0.40;;;0.40;;
10727;SDS011;5415;59.322;18.246;2022-07-29T07:50:35;0.50;;;0.50;;
10727;SDS011;5415;59.322;18.246;2022-07-29T07:53:02;0.87;;;0.50;;
10727;SDS011;5415;59.322;18.246;2022-07-29T07:55:30;0.40;;;0.40;;
10727;SDS011;5415;59.322;18.246;2022-07-29T07:57:59;1.90;;;0.40;;
10727;SDS011;5415;59.322;18.246;2022-07-29T08:00:27;0.50;;;0.50;;
10727;SDS011;5415;59.322;18.246;2022-07-29T08:02:54;0.67;;;0.40;;
10727;SDS011;5415;59.322;18.246;2022-07-29T08:05:22;0.50;;;0.43;;
10727;SDS011;5415;59.322;18.246;2022-07-29T08:07:51;0.40;;;0.40;;
10727;SDS011;5415;59.322;18.246;2022-07-29T08:10:18;0.73;;;0.50;;
10727;SDS011;5415;59.322;18.246;2022-07-29T08:13:03;0.40;;;0.40;;
10727;SDS011;5415;59.322;18.246;2022-07-29T08:15:30;0.60;;;0.43;;
10727;SDS011;5415;59.322;18.246;2022-07-29T08:17:59;1.17;;;0.60;;
10727;SDS011;5415;59.322;18.246;2022-07-29T08:20:27;0.50;;;0.50;;
10727;SDS011;5415;59.322;18.246;2022-07-29T08:22:55;0.40;;;0.40;;
10727;SDS011;5415;59.322;18.246;2022-07-29T08:25:22;0.53;;;0.53;;
10727;SDS011;5415;59.322;18.246;2022-07-29T08:27:49;0.43;;;0.43;;
10727;SDS011;5415;59.322;18.246;2022-07-29T08:30:18;0.60;;;0.47;;
10727;SDS011;5415;59.322;18.246;2022-07-29T08:32:47;1.47;;;0.50;;
10727;SDS011;5415;59.322;18.246;2022-07-29T08:35:17;0.93;;;0.50;;
10727;SDS011;5415;59.322;18.246;2022-07-29T08:37:45;0.53;;;0.53;;
10727;SDS011;5415;59.322;18.246;2022-07-29T08:40:13;0.40;;;0.40;;
10727;SDS011;5415;59.322;18.246;2022-07-29T08:42:40;0.47;;;0.40;;
10727;SDS011;5415;59.322;18.246;2022-07-29T08:45:09;0.83;;;0.50;;
10727;SDS011;5415;59.322;18.246;2022-07-29T08:47:39;1.20;;;0.50;;
10727;SDS011;5415;59.322;18.246;2022-07-29T08:50:07;0.50;;;0.50;;
10727;SDS011;5415;59.322;18.246;2022-07-29T08:52:35;0.87;;;0.47;;
10727;SDS011;5415;59.322;18.246;2022-07-29T08:55:04;0.30;;;0.30;;
10727;SDS011;5415;59.322;18.246;2022-07-29T08:57:33;0.50;;;0.50;;
10727;SDS011;5415;59.322;18.246;2022-07-29T09:00:03;0.50;;;0.50;;
10727;SDS011;5415;59.322;18.246;2022-07-29T09:02:33;0.40;;;0.40;;
10727;SDS011;5415;59.322;18.246;2022-07-29T09:05:04;0.40;;;0.40;;
10727;SDS011;5415;59.322;18.246;2022-07-29T09:07:33;0.40;;;0.40;;
10727;SDS011;5415;59.322;18.246;2022-07-29T09:10:01;0.80;;;0.47;;
10727;SDS011;5415;59.322;18.246;2022-07-29T09:12:28;0.37;;;0.37;;
10727;SDS011;5415;59.322;18.246;2022-07-29T09:14:56;0.97;;;0.50;;
10727;SDS011;5415;59.322;18.246;2022-07-29T09:22:52;0.73;;;0.40;;
10727;SDS011;5415;59.322;18.246;2022-07-29T09:25:32;0.60;;;0.40;;
10727;SDS011;5415;59.322;18.246;2022-07-29T09:28:05;0.43;;;0.43;;
10727;SDS011;5415;59.322;18.246;2022-07-29T09:30:33;0.40;;;0.40;;
10727;SDS011;5415;59.322;18.246;2022-07-29T09:33:02;0.63;;;0.30;;
10727;SDS011;5415;59.322;18.246;2022-07-29T09:35:30;0.40;;;0.40;;
10727;SDS011;5415;59.322;18.246;2022-07-29T09:38:00;0.40;;;0.40;;
10727;SDS011;5415;59.322;18.246;2022-07-29T09:40:37;0.50;;;0.40;;
10727;SDS011;5415;59.322;18.246;2022-07-29T09:43:09;0.90;;;0.30;;
10727;SDS011;5415;59.322;18.246;2022-07-29T09:45:37;0.57;;;0.40;;
10727;SDS011;5415;59.322;18.246;2022-07-29T09:48:16;0.30;;;0.30;;
10727;SDS011;5415;59.322;18.246;2022-07-29T09:50:44;0.40;;;0.40;;
10727;SDS011;5415;59.322;18.246;2022-07-29T09:53:17;0.47;;;0.47;;
10727;SDS011;5415;59.322;18.246;2022-07-29T09:55:56;0.33;;;0.33;;
10727;SDS011;5415;59.322;18.246;2022-07-29T09:58:25;0.37;;;0.37;;
10727;SDS011;5415;59.322;18.246;2022-07-29T10:00:53;0.47;;;0.47;;
10727;SDS011;5415;59.322;18.246;2022-07-29T10:03:22;0.50;;;0.33;;
10727;SDS011;5415;59.322;18.246;2022-07-29T10:06:04;3.30;;;0.40;;
10727;SDS011;5415;59.322;18.246;2022-07-29T10:08:34;1.83;;;0.40;;
10727;SDS011;5415;59.322;18.246;2022-07-29T10:11:08;0.40;;;0.40;;
10727;SDS011;5415;59.322;18.246;2022-07-29T10:13:36;0.40;;;0.40;;
10727;SDS011;5415;59.322;18.246;2022-07-29T10:16:05;0.50;;;0.50;;
10727;SDS011;5415;59.322;18.246;2022-07-29T10:18:33;0.60;;;0.50;;
10727;SDS011;5415;59.322;18.246;2022-07-29T10:21:01;0.37;;;0.37;;
10727;SDS011;5415;59.322;18.246;2022-07-29T10:23:29;0.50;;;0.50;;
10727;SDS011;5415;59.322;18.246;2022-07-29T10:25:59;0.30;;;0.30;;
10727;SDS011;5415;59.322;18.246;2022-07-29T10:28:27;0.50;;;0.50;;
10727;SDS011;5415;59.322;18.246;2022-07-29T10:31:04;0.70;;;0.40;;
10727;SDS011;5415;59.322;18.246;2022-07-29T10:33:36;0.37;;;0.37;;
10727;SDS011;5415;59.322;18.246;2022-07-29T10:36:14;1.50;;;0.40;;
10727;SDS011;5415;59.322;18.246;2022-07-29T10:38:47;0.50;;;0.50;;
10727;SDS011;5415;59.322;18.246;2022-07-29T10:41:28;0.40;;;0.40;;
10727;SDS011;5415;59.322;18.246;2022-07-29T10:44:01;0.40;;;0.40;;
10727;SDS011;5415;59.322;18.246;2022-07-29T10:46:28;0.40;;;0.40;;
10727;SDS011;5415;59.322;18.246;2022-07-29T10:49:07;0.47;;;0.47;;
10727;SDS011;5415;59.322;18.246;2022-07-29T10:51:51;0.60;;;0.60;;
10727;SDS011;5415;59.322;18.246;2022-07-29T10:54:35;0.43;;;0.40;;
10727;SDS011;5415;59.322;18.246;2022-07-29T10:57:12;0.53;;;0.53;;
10727;SDS011;5415;59.322;18.246;2022-07-29T10:59:40;0.50;;;0.50;;
10727;SDS011;5415;59.322;18.246;2022-07-29T11:05:01;0.80;;;0.50;;
10727;SDS011;5415;59.322;18.246;2022-07-29T11:07:30;0.33;;;0.33;;
10727;SDS011;5415;59.322;18.246;2022-07-29T11:12:49;1.30;;;0.40;;
10727;SDS011;5415;59.322;18.246;2022-07-29T11:15:18;0.50;;;0.40;;
10727;SDS011;5415;59.322;18.246;2022-07-29T11:18:05;0.30;;;0.30;;
10727;SDS011;5415;59.322;18.246;2022-07-29T11:20:34;0.80;;;0.40;;
10727;SDS011;5415;59.322;18.246;2022-07-29T11:23:03;3.17;;;0.67;;
10727;SDS011;5415;59.322;18.246;2022-07-29T11:25:44;0.50;;;0.50;;
10727;SDS011;5415;59.322;18.246;2022-07-29T11:28:15;1.90;;;0.40;;
10727;SDS011;5415;59.322;18.246;2022-07-29T11:30:47;0.50;;;0.50;;
10727;SDS011;5415;59.322;18.246;2022-07-29T11:36:06;1.03;;;0.40;;
10727;SDS011;5415;59.322;18.246;2022-07-29T11:38:34;2.30;;;0.53;;
10727;SDS011;5415;59.322;18.246;2022-07-29T11:41:19;1.13;;;0.50;;
10727;SDS011;5415;59.322;18.246;2022-07-29T11:43:49;0.53;;;0.53;;
10727;SDS011;5415;59.322;18.246;2022-07-29T11:46:18;0.40;;;0.40;;
10727;SDS011;5415;59.322;18.246;2022-07-29T11:48:45;0.30;;;0.30;;
10727;SDS011;5415;59.322;18.246;2022-07-29T11:51:13;2.53;;;0.50;;
10727;SDS011;5415;59.322;18.246;2022-07-29T11:53:41;0.40;;;0.40;;
10727;SDS011;5415;59.322;18.246;2022-07-29T11:56:14;0.30;;;0.30;;
10727;SDS011;5415;59.322;18.246;2022-07-29T11:58:45;0.50;;;0.37;;
10727;SDS011;5415;59.322;18.246;2022-07-29T12:01:14;0.47;;;0.47;;
10727;SDS011;5415;59.322;18.246;2022-07-29T12:03:45;0.50;;;0.50;;
10727;SDS011;5415;59.322;18.246;2022-07-29T12:06:14;1.37;;;0.60;;
10727;SDS011;5415;59.322;18.246;2022-07-29T12:08:42;0.40;;;0.40;;
10727;SDS011;5415;59.322;18.246;2022-07-29T12:11:16;0.60;;;0.60;;
10727;SDS011;5415;59.322;18.246;2022-07-29T12:13:44;0.73;;;0.40;;
10727;SDS011;5415;59.322;18.246;2022-07-29T12:16:11;0.40;;;0.40;;
10727;SDS011;5415;59.322;18.246;2022-07-29T12:18:40;0.40;;;0.40;;
10727;SDS011;5415;59.322;18.246;2022-07-29T12:21:09;0.60;;;0.60;;
10727;SDS011;5415;59.322;18.246;2022-07-29T12:23:37;0.50;;;0.50;;
10727;SDS011;5415;59.322;18.246;2022-07-29T12:26:04;0.67;;;0.60;;
10727;SDS011;5415;59.322;18.246;2022-07-29T12:28:35;0.50;;;0.50;;
10727;SDS011;5415;59.322;18.246;2022-07-29T12:31:04;0.50;;;0.50;;
10727;SDS011;5415;59.322;18.246;2022-07-29T12:33:31;1.60;;;0.40;;
10727;SDS011;5415;59.322;18.246;2022-07-29T12:36:01;0.60;;;0.60;;
10727;SDS011;5415;59.322;18.246;2022-07-29T12:38:29;0.70;;;0.50;;
10727;SDS011;5415;59.322;18.246;2022-07-29T12:40:57;0.57;;;0.57;;
10727;SDS011;5415;59.322;18.246;2022-07-29T12:43:26;0.60;;;0.50;;
10727;SDS011;5415;59.322;18.246;2022-07-29T12:45:54;0.83;;;0.50;;
10727;SDS011;5415;59.322;18.246;2022-07-29T12:48:32;0.50;;;0.50;;
10727;SDS011;5415;59.322;18.246;2022-07-29T12:51:03;1.33;;;0.53;;
10727;SDS011;5415;59.322;18.246;2022-07-29T12:53:31;0.50;;;0.50;;
10727;SDS011;5415;59.322;18.246;2022-07-29T12:55:59;1.70;;;0.60;;
10727;SDS011;5415;59.322;18.246;2022-07-29T12:58:28;0.50;;;0.50;;
10727;SDS011;5415;59.322;18.246;2022-07-29T13:01:00;0.60;;;0.60;;
10727;SDS011;5415;59.322;18.246;2022-07-29T13:03:28;0.57;;;0.53;;
10727;SDS011;5415;59.322;18.246;2022-07-29T13:05:55;0.70;;;0.50;;
10727;SDS011;5415;59.322;18.246;2022-07-29T13:08:25;2.40;;;0.80;;
10727;SDS011;5415;59.322;18.246;2022-07-29T13:10:53;0.60;;;0.60;;
10727;SDS011;5415;59.322;18.246;2022-07-29T13:13:20;0.60;;;0.60;;
10727;SDS011;5415;59.322;18.246;2022-07-29T13:15:53;0.40;;;0.40;;
10727;SDS011;5415;59.322;18.246;2022-07-29T13:18:33;0.50;;;0.50;;
10727;SDS011;5415;59.322;18.246;2022-07-29T13:21:10;0.60;;;0.50;;
10727;SDS011;5415;59.322;18.246;2022-07-29T13:23:40;0.77;;;0.50;;
10727;SDS011;5415;59.322;18.246;2022-07-29T13:26:07;0.50;;;0.50;;
10727;SDS011;5415;59.322;18.246;2022-07-29T13:28:36;0.57;;;0.57;;
10727;SDS011;5415;59.322;18.246;2022-07-29T13:31:04;1.20;;;0.40;;
10727;SDS011;5415;59.322;18.246;2022-07-29T13:33:32;1.20;;;0.47;;
10727;SDS011;5415;59.322;18.246;2022-07-29T13:35:59;0.40;;;0.40;;
10727;SDS011;5415;59.322;18.246;2022-07-29T13:38:28;0.67;;;0.40;;
10727;SDS011;5415;59.322;18.246;2022-07-29T13:40:57;0.53;;;0.53;;
10727;SDS011;5415;59.322;18.246;2022-07-29T13:43:26;0.50;;;0.50;;
10727;SDS011;5415;59.322;18.246;2022-07-29T13:45:54;2.07;;;0.63;;
10727;SDS011;5415;59.322;18.246;2022-07-29T13:48:21;2.17;;;0.50;;
10727;SDS011;5415;59.322;18.246;2022-07-29T13:50:49;0.50;;;0.50;;
10727;SDS011;5415;59.322;18.246;2022-07-29T13:53:16;1.40;;;0.50;;
10727;SDS011;5415;59.322;18.246;2022-07-29T13:55:44;0.40;;;0.40;;
10727;SDS011;5415;59.322;18.246;2022-07-29T13:58:13;1.33;;;0.40;;
10727;SDS011;5415;59.322;18.246;2022-07-29T14:00:42;0.60;;;0.40;;
10727;SDS011;5415;59.322;18.246;2022-07-29T14:03:11;0.57;;;0.53;;
10727;SDS011;5415;59.322;18.246;2022-07-29T14:05:40;0.67;;;0.50;;
10727;SDS011;5415;59.322;18.246;2022-07-29T14:08:08;2.50;;;0.50;;
10727;SDS011;5415;59.322;18.246;2022-07-29T14:10:35;1.50;;;0.30;;
10727;SDS011;5415;59.322;18.246;2022-07-29T14:13:03;2.57;;;0.70;;
10727;SDS011;5415;59.322;18.246;2022-07-29T14:15:32;0.60;;;0.50;;
10727;SDS011;5415;59.322;18.246;2022-07-29T14:18:01;0.70;;;0.50;;
10727;SDS011;5415;59.322;18.246;2022-07-29T14:20:29;0.73;;;0.50;;
10727;SDS011;5415;59.322;18.246;2022-07-29T14:22:56;0.83;;;0.47;;
10727;SDS011;5415;59.322;18.246;2022-07-29T14:25:24;0.50;;;0.50;;
10727;SDS011;5415;59.322;18.246;2022-07-29T14:27:52;0.40;;;0.40;;
10727;SDS011;5415;59.322;18.246;2022-07-29T14:30:19;0.40;;;0.40;;
10727;SDS011;5415;59.322;18.246;2022-07-29T14:32:48;0.70;;;0.60;;
10727;SDS011;5415;59.322;18.246;2022-07-29T14:35:16;1.33;;;0.40;;
10727;SDS011;5415;59.322;18.246;2022-07-29T14:37:44;0.60;;;0.60;;
10727;SDS011;5415;59.322;18.246;2022-07-29T14:40:13;0.50;;;0.50;;
10727;SDS011;5415;59.322;18.246;2022-07-29T14:42:40;1.10;;;0.60;;
10727;SDS011;5415;59.322;18.246;2022-07-29T14:45:09;0.40;;;0.40;;
10727;SDS011;5415;59.322;18.246;2022-07-29T14:47:36;0.40;;;0.40;;
10727;SDS011;5415;59.322;18.246;2022-07-29T14:50:07;0.50;;;0.50;;
10727;SDS011;5415;59.322;18.246;2022-07-29T14:52:34;1.03;;;0.50;;
10727;SDS011;5415;59.322;18.246;2022-07-29T14:55:04;0.70;;;0.57;;
10727;SDS011;5415;59.322;18.246;2022-07-29T14:57:32;2.47;;;0.47;;
10727;SDS011;5415;59.322;18.246;2022-07-29T14:59:59;0.93;;;0.60;;
10727;SDS011;5415;59.322;18.246;2022-07-29T15:02:27;1.40;;;0.50;;
10727;SDS011;5415;59.322;18.246;2022-07-29T15:04:55;0.63;;;0.50;;
10727;SDS011;5415;59.322;18.246;2022-07-29T15:07:24;0.73;;;0.63;;
10727;SDS011;5415;59.322;18.246;2022-07-29T15:09:52;0.73;;;0.60;;
10727;SDS011;5415;59.322;18.246;2022-07-29T15:12:19;0.70;;;0.63;;
10727;SDS011;5415;59.322;18.246;2022-07-29T15:14:47;2.20;;;1.40;;
10727;SDS011;5415;59.322;18.246;2022-07-29T15:17:14;1.37;;;1.00;;